Rome Fiumicino, Italy

11:53 AM CEST on April 19, 2015 (GMT +0200)
Fiumicino | | Change Station
CLOSE
Current Station
Airport
Location: Rome Fiumicino,
Elevation: 10 ft
Nearby Weather Stations
Active Advisory: RainThunderstorms

Elev 10 ft 41.80 °N, 12.24 °E | Updated 33 minutes ago

Scattered Clouds
Scattered Clouds
64 °F
Feels Like 64 °F
N
6
Wind Variable Wind from ENE

Today
High -- | Low -- °F
--% Chance of Precip.
Yesterday
High -- | Low -- °F
Precip. -- in
6:25 AM 7:55 PM
New Moon, 1% visible
Pressure 30.01 in
Visibility 6.2 miles
Clouds Scattered Clouds 2500 ft
Dew Point 50 °F
Humidity 59%
Rainfall 0.00 in
Snow Depth Not available.
UV 6 out of 12
Pollen Not available.
Air Quality Not available.
Flu Activity Not available.
METAR LIRF 190920Z 06005KT 030V120 9999 SCT025 18/10 Q1016 NOSIG

More Conditions Fewer Conditions

Pressure 30.01 in
Visibility 6.2 miles
Clouds Scattered Clouds 2500 ft
Dew Point 50 °F
Humidity 59%
Rainfall 0.00 in
Snow Depth Not available.
UV 6 out of 12
Pollen Not available.
Air Quality Not available.
Flu Activity Not available.
METAR LIRF 190920Z 06005KT 030V120 9999 SCT025 18/10 Q1016 NOSIG

More Conditions Fewer Conditions

10-Day Weather Forecast

Almanac

Astronomy

Apr. 19, 2015 Rise Set
Actual Time
Civil Twilight
Nautical Twilight
Astronomical Twilight
Moon
Length of Visible Light
Length of Day
Tomorrow will be .
, % of the Moon is Illuminated

Today's Extremes

Country Highs Country Lows

Community

WunderPhotos

Upload Photos

1,814,753 photos uploaded!

WunderBlogs® & News

Nearby

Air Quality

  Air Quality AQ Index Pollutant
Not available.

Snow Depth

Station Depth Elevation

Earthquake Activity

City Distance Mag. Time & Date
Minimum magnitude displayed is 2.5.

Coastal Water Temperatures

Place Temperature

Stations

Nearby Weather Stations

Station Location Temp. Windchill Dew Point Humidity Wind Precip. Elev Updated Type